Time;durP1;ratioP1;P1;durP2;ratioP2;P2;SDS_P1;SDS_P2;PMS_P1;PMS_P2;Temp;Humidity;BMP_temperature;BMP_pressure;BME280_temperature;BME280_humidity;BME280_pressure;Samples;Min_cycle;Max_cycle;Signal;HPM_P1;HPM_P2
2022/01/30 00:01:09;;;;;;;26.85;4.10;;;5.80;99.90;;;;;;6094935;23;20386;-87
2022/01/30 00:03:35;;;;;;;21.25;4.43;;;5.80;99.90;;;;;;6094570;23;20010;-87
2022/01/30 00:06:00;;;;;;;26.42;3.72;;;5.70;99.90;;;;;;6094801;23;20009;-86
2022/01/30 00:08:26;;;;;;;27.70;4.60;;;5.80;99.90;;;;;;6097101;23;20801;-87
2022/01/30 00:10:58;;;;;;;23.88;3.30;;;5.80;99.90;;;;;;6095417;23;20043;-86
2022/01/30 00:13:26;;;;;;;25.20;3.95;;;5.70;99.90;;;;;;6093379;23;20017;-87
2022/01/30 00:15:54;;;;;;;23.25;4.85;;;5.70;99.90;;;;;;6096274;23;20013;-87
2022/01/30 00:21:12;;;;;;;17.17;3.80;;;5.70;99.90;;;;;;6121115;23;20404;-87
2022/01/30 00:23:46;;;;;;;30.13;3.72;;;5.60;99.90;;;;;;6093747;23;20097;-86
2022/01/30 00:26:14;;;;;;;25.50;3.22;;;5.40;99.90;;;;;;6093581;23;20013;-87
2022/01/30 00:28:40;;;;;;;25.02;2.88;;;5.40;99.90;;;;;;6092001;23;20084;-87
2022/01/30 00:31:06;;;;;;;21.48;4.18;;;5.50;99.90;;;;;;6119306;23;20442;-87
2022/01/30 00:33:32;;;;;;;22.83;3.47;;;5.60;99.90;;;;;;6092158;23;20013;-86
2022/01/30 00:35:57;;;;;;;18.35;3.85;;;5.50;99.90;;;;;;6096201;23;20228;-87
2022/01/30 00:38:23;;;;;;;21.95;4.13;;;5.40;99.90;;;;;;6119182;23;20417;-87
2022/01/30 00:40:50;;;;;;;27.73;4.20;;;5.60;99.90;;;;;;6094808;23;20100;-87
2022/01/30 00:43:16;;;;;;;30.65;3.55;;;5.50;99.90;;;;;;6096033;23;20013;-86
2022/01/30 00:45:42;;;;;;;28.50;3.95;;;5.50;99.90;;;;;;6092608;23;20014;-87
2022/01/30 00:48:07;;;;;;;26.05;4.18;;;5.50;99.90;;;;;;6115846;23;20437;-86
2022/01/30 00:50:33;;;;;;;11.20;2.80;;;5.40;99.90;;;;;;6095626;23;20144;-87
2022/01/30 00:52:58;;;;;;;31.27;4.93;;;5.40;99.90;;;;;;6096242;23;20045;-87
2022/01/30 00:55:40;;;;;;;22.45;3.58;;;5.40;99.90;;;;;;6095280;23;20010;-87
2022/01/30 00:58:14;;;;;;;31.80;5.00;;;5.50;99.90;;;;;;6093484;23;20010;-87
2022/01/30 01:00:40;;;;;;;19.30;3.63;;;5.40;99.90;;;;;;6095107;23;20017;-86
2022/01/30 01:03:05;;;;;;;23.27;3.67;;;5.40;99.90;;;;;;6118979;23;20096;-86
2022/01/30 01:05:33;;;;;;;20.60;3.35;;;5.20;99.90;;;;;;6096432;23;20338;-87
2022/01/30 01:08:02;;;;;;;31.65;4.70;;;5.40;99.90;;;;;;6096598;23;20053;-86
2022/01/30 01:23:19;;;;;;;19.88;3.40;;;5.30;99.90;;;;;;6124155;23;20081;-87
2022/01/30 01:23:46;;;;;;;24.42;3.85;;;5.30;99.90;;;;;;6124202;23;20020;-86
2022/01/30 01:26:12;;;;;;;40.90;4.57;;;5.40;99.90;;;;;;6098988;23;20020;-86
2022/01/30 01:28:37;;;;;;;34.75;4.97;;;5.40;99.90;;;;;;6097256;23;20017;-86
2022/01/30 01:31:03;;;;;;;23.92;4.85;;;5.40;99.90;;;;;;6093735;23;20025;-86
2022/01/30 01:36:13;;;;;;;29.73;4.15;;;5.50;99.90;;;;;;6124953;23;20492;-87
2022/01/30 01:38:38;;;;;;;29.20;3.35;;;5.30;99.90;;;;;;6097420;23;20009;-87
2022/01/30 01:41:04;;;;;;;20.02;4.85;;;5.40;99.90;;;;;;6095753;23;20417;-86
2022/01/30 01:43:30;;;;;;;27.00;3.30;;;5.40;99.90;;;;;;6097516;23;20010;-87
2022/01/30 01:45:57;;;;;;;41.40;5.22;;;5.40;99.90;;;;;;6097402;23;20034;-87
2022/01/30 01:48:23;;;;;;;24.83;3.65;;;5.30;99.90;;;;;;6097282;23;20014;-87
2022/01/30 01:51:04;;;;;;;18.88;2.80;;;5.30;99.90;;;;;;6096715;23;20067;-87
2022/01/30 01:53:29;;;;;;;21.55;5.05;;;5.40;99.90;;;;;;6124677;23;20439;-87
2022/01/30 01:55:55;;;;;;;21.23;3.88;;;5.40;99.90;;;;;;6097256;23;20018;-87
2022/01/30 01:58:23;;;;;;;19.77;3.58;;;5.40;99.90;;;;;;6096228;23;20328;-87
2022/01/30 02:00:49;;;;;;;28.15;4.20;;;5.40;99.90;;;;;;6118410;23;20184;-87
2022/01/30 02:03:16;;;;;;;20.58;4.10;;;5.30;99.90;;;;;;6096518;23;20009;-87
2022/01/30 02:05:46;;;;;;;30.20;4.20;;;5.30;99.90;;;;;;6120786;23;20013;-86
2022/01/30 02:11:00;;;;;;;30.95;4.53;;;5.20;99.90;;;;;;6123119;23;20338;-86
2022/01/30 02:24:16;;;;;;;28.13;4.00;;;5.00;99.90;;;;;;6122025;23;20036;-87
2022/01/30 02:26:45;;;;;;;29.15;3.95;;;5.00;99.90;;;;;;6084369;23;20022;-86
2022/01/30 02:29:11;;;;;;;23.90;4.10;;;4.90;99.90;;;;;;6120160;23;20006;-86
2022/01/30 02:31:39;;;;;;;29.55;3.40;;;5.00;99.90;;;;;;6120542;23;20033;-86
2022/01/30 02:34:05;;;;;;;26.00;5.38;;;5.00;99.90;;;;;;6121437;23;20442;-86
2022/01/30 02:36:30;;;;;;;38.03;4.75;;;4.90;99.90;;;;;;6098075;23;20021;-87
2022/01/30 02:38:58;;;;;;;26.35;3.60;;;5.00;99.90;;;;;;6096112;23;20018;-87
2022/01/30 02:41:24;;;;;;;22.92;3.58;;;4.80;99.90;;;;;;6096408;23;20022;-87
2022/01/30 02:44:11;;;;;;;23.20;3.60;;;4.80;99.90;;;;;;6096810;23;20096;-87
2022/01/30 02:46:42;;;;;;;33.35;5.25;;;4.90;99.90;;;;;;6100896;23;20878;-86
2022/01/30 02:51:55;;;;;;;28.52;4.25;;;4.90;99.90;;;;;;6122931;23;20013;-87
2022/01/30 02:54:20;;;;;;;33.25;4.05;;;4.70;99.90;;;;;;6098031;23;20017;-87
2022/01/30 02:56:46;;;;;;;20.00;2.80;;;4.70;99.90;;;;;;6096722;23;20021;-87
2022/01/30 02:59:12;;;;;;;33.30;4.25;;;4.70;99.90;;;;;;6095123;23;20015;-87
2022/01/30 03:01:38;;;;;;;24.52;3.70;;;4.70;99.90;;;;;;6095846;23;20021;-87
2022/01/30 03:04:03;;;;;;;22.30;3.78;;;4.80;99.90;;;;;;6097839;23;20013;-87
2022/01/30 03:06:29;;;;;;;25.40;4.68;;;4.70;99.90;;;;;;6097448;23;20019;-86
2022/01/30 03:08:55;;;;;;;35.85;6.50;;;4.70;99.90;;;;;;6097075;23;20489;-87
2022/01/30 03:11:20;;;;;;;31.75;4.45;;;4.70;99.90;;;;;;6096506;23;20010;-87
2022/01/30 03:13:46;;;;;;;21.50;2.80;;;4.80;99.90;;;;;;6096167;23;20017;-87
2022/01/30 03:16:11;;;;;;;27.73;3.70;;;4.80;99.90;;;;;;6095153;23;20497;-86
2022/01/30 03:18:37;;;;;;;18.30;3.28;;;4.80;99.90;;;;;;6096158;23;20354;-86
2022/01/30 03:21:03;;;;;;;22.27;3.67;;;4.80;99.90;;;;;;6116080;23;20511;-87
2022/01/30 03:23:29;;;;;;;15.75;2.95;;;4.90;99.90;;;;;;6096864;23;20021;-87
2022/01/30 03:25:58;;;;;;;24.92;3.53;;;4.80;99.90;;;;;;6096545;23;20021;-86
2022/01/30 03:28:24;;;;;;;24.23;3.15;;;4.90;99.90;;;;;;6094412;23;20017;-87
2022/01/30 03:30:54;;;;;;;22.08;2.92;;;4.90;99.90;;;;;;6095093;23;20028;-87
2022/01/30 03:33:20;;;;;;;30.05;4.20;;;4.90;99.90;;;;;;6097136;23;20013;-86
2022/01/30 03:35:45;;;;;;;22.70;4.32;;;5.00;99.90;;;;;;6094279;23;20351;-86
2022/01/30 03:38:11;;;;;;;24.60;3.75;;;4.90;99.90;;;;;;6095723;23;20013;-87
2022/01/30 03:40:36;;;;;;;23.83;3.85;;;4.80;99.90;;;;;;6095508;23;20072;-87
2022/01/30 03:43:02;;;;;;;32.20;4.25;;;4.90;99.90;;;;;;6092939;23;20044;-86
2022/01/30 03:45:28;;;;;;;23.00;4.47;;;5.00;99.90;;;;;;6120062;23;20058;-86
2022/01/30 03:47:56;;;;;;;22.13;3.28;;;5.00;99.90;;;;;;6096218;23;20010;-86
2022/01/30 03:50:22;;;;;;;26.10;4.03;;;5.00;99.90;;;;;;6090893;23;20506;-86
2022/01/30 03:52:48;;;;;;;14.48;2.70;;;5.00;99.90;;;;;;6095214;23;20015;-86
2022/01/30 03:55:13;;;;;;;19.45;3.05;;;5.00;99.90;;;;;;6095978;23;20411;-86
2022/01/30 03:57:39;;;;;;;29.85;4.47;;;4.90;99.90;;;;;;6095195;23;20020;-86
2022/01/30 04:00:07;;;;;;;24.30;3.22;;;5.00;99.90;;;;;;6096526;23;20010;-86
2022/01/30 04:02:32;;;;;;;20.23;3.42;;;5.00;99.90;;;;;;6094398;23;20010;-86
2022/01/30 04:04:58;;;;;;;26.10;4.18;;;4.90;99.90;;;;;;6095444;23;20016;-86
2022/01/30 04:07:23;;;;;;;28.80;4.25;;;4.70;99.90;;;;;;6120107;23;20009;-86
2022/01/30 04:09:49;;;;;;;23.48;3.63;;;4.80;99.90;;;;;;6119451;23;20012;-86
2022/01/30 04:12:15;;;;;;;25.33;3.67;;;4.80;99.90;;;;;;6094627;23;20084;-86
2022/01/30 04:14:42;;;;;;;24.92;3.67;;;4.70;99.90;;;;;;6095233;23;20040;-86
2022/01/30 04:17:09;;;;;;;24.38;3.60;;;4.70;99.90;;;;;;6095717;23;20005;-86
2022/01/30 04:19:35;;;;;;;33.35;4.38;;;4.70;99.90;;;;;;6096094;23;20020;-86
2022/01/30 04:22:01;;;;;;;22.63;4.40;;;4.60;99.90;;;;;;6094353;23;20079;-86
2022/01/30 04:24:26;;;;;;;33.67;4.35;;;4.50;99.90;;;;;;6119469;23;20009;-86
2022/01/30 04:26:52;;;;;;;12.15;1.50;;;4.50;99.90;;;;;;6095566;23;20028;-86
2022/01/30 04:29:17;;;;;;;18.73;2.85;;;4.50;99.90;;;;;;6095107;23;20025;-86
2022/01/30 04:31:43;;;;;;;23.33;3.65;;;4.60;99.90;;;;;;6092460;23;20040;-87
2022/01/30 04:34:10;;;;;;;25.67;4.45;;;4.50;99.90;;;;;;6120022;23;20051;-86
2022/01/30 04:36:41;;;;;;;18.63;3.30;;;4.50;99.90;;;;;;6072313;23;20375;-86
2022/01/30 04:39:30;;;;;;;21.88;4.28;;;4.50;99.90;;;;;;6121279;23;20837;-86
2022/01/30 04:51:57;;;;;;;21.23;3.40;;;4.60;99.90;;;;;;6124474;23;20767;-86
2022/01/30 04:56:05;;;;;;;27.70;3.83;;;4.50;99.90;;;;;;6121437;23;20028;-86
2022/01/30 05:03:56;;;;;;;24.38;3.45;;;4.60;99.90;;;;;;6120977;23;20093;-86
2022/01/30 05:06:13;;;;;;;28.40;4.30;;;4.70;99.90;;;;;;6123072;23;20016;-86
2022/01/30 05:08:39;;;;;;;21.75;3.22;;;4.60;99.90;;;;;;6096559;23;20037;-86
2022/01/30 05:11:07;;;;;;;43.97;5.03;;;4.60;99.90;;;;;;6094783;23;20006;-86
2022/01/30 05:13:35;;;;;;;32.08;4.13;;;4.60;99.90;;;;;;6096019;23;20013;-86
2022/01/30 05:16:01;;;;;;;31.55;4.07;;;4.60;99.90;;;;;;6067384;23;20024;-86
2022/01/30 05:18:28;;;;;;;21.73;3.42;;;4.50;99.90;;;;;;6090656;23;20092;-86
2022/01/30 05:20:57;;;;;;;19.30;3.13;;;4.60;99.90;;;;;;6119564;23;20026;-86
2022/01/30 05:23:23;;;;;;;26.38;2.72;;;4.60;99.90;;;;;;6094298;23;20029;-86
2022/01/30 05:25:50;;;;;;;14.50;2.72;;;4.60;99.90;;;;;;6095166;23;20432;-86
2022/01/30 05:28:16;;;;;;;14.90;3.10;;;4.60;99.90;;;;;;6095530;23;20049;-86
2022/01/30 05:30:42;;;;;;;28.23;3.97;;;4.60;99.90;;;;;;6093056;23;20041;-86
2022/01/30 05:33:08;;;;;;;26.88;3.47;;;4.70;99.90;;;;;;6094330;23;20057;-86
2022/01/30 05:35:34;;;;;;;30.55;3.63;;;4.70;99.90;;;;;;6094515;23;20013;-86
2022/01/30 05:37:59;;;;;;;31.65;5.18;;;4.70;99.90;;;;;;6089613;23;20021;-86
2022/01/30 05:40:25;;;;;;;14.98;2.85;;;4.60;99.90;;;;;;6094444;23;20040;-86
2022/01/30 05:42:51;;;;;;;23.25;3.08;;;4.60;99.90;;;;;;6093294;23;20320;-86
2022/01/30 05:45:21;;;;;;;25.27;4.00;;;4.60;99.90;;;;;;6095110;23;20009;-86
2022/01/30 05:47:54;;;;;;;20.10;2.22;;;4.70;99.90;;;;;;6061987;23;20034;-87
2022/01/30 05:50:20;;;;;;;22.52;3.92;;;4.60;99.90;;;;;;6068773;23;20528;-86
2022/01/30 05:52:46;;;;;;;26.75;4.32;;;4.70;99.90;;;;;;6117198;23;20516;-86
2022/01/30 05:55:11;;;;;;;23.00;2.90;;;4.70;99.90;;;;;;6095957;23;20013;-86
2022/01/30 05:57:37;;;;;;;26.80;3.55;;;4.70;99.90;;;;;;6057917;23;20063;-86
2022/01/30 06:00:04;;;;;;;15.68;2.80;;;4.80;99.90;;;;;;6093151;23;20002;-86
2022/01/30 06:02:30;;;;;;;28.48;3.97;;;4.70;99.90;;;;;;6095523;23;20022;-86
2022/01/30 06:04:55;;;;;;;21.10;3.22;;;4.80;99.90;;;;;;6095123;23;20016;-87
2022/01/30 06:07:27;;;;;;;26.55;3.58;;;4.80;99.90;;;;;;6097541;23;20079;-86
2022/01/30 06:09:52;;;;;;;8.00;2.63;;;4.80;99.90;;;;;;6122836;23;20955;-87
2022/01/30 06:12:18;;;;;;;15.65;2.33;;;4.80;99.90;;;;;;6093664;23;20010;-86
2022/01/30 06:14:47;;;;;;;18.15;2.47;;;4.80;99.90;;;;;;6098176;23;20087;-86
2022/01/30 06:17:13;;;;;;;22.75;3.85;;;4.80;99.90;;;;;;6121665;23;20010;-86
2022/01/30 06:19:38;;;;;;;26.88;4.60;;;4.70;99.90;;;;;;6096544;23;20033;-86
2022/01/30 06:22:04;;;;;;;23.85;3.25;;;4.80;99.90;;;;;;6097417;23;20079;-86
2022/01/30 06:24:29;;;;;;;16.83;2.50;;;4.70;99.90;;;;;;6098150;23;20438;-86
2022/01/30 06:26:55;;;;;;;25.00;4.38;;;4.70;99.90;;;;;;6072966;23;20447;-86
2022/01/30 06:29:21;;;;;;;26.30;4.07;;;4.70;99.90;;;;;;6058712;23;20201;-86
2022/01/30 06:31:46;;;;;;;22.05;4.95;;;4.60;99.90;;;;;;6096024;23;20022;-86
2022/01/30 06:34:13;;;;;;;25.15;3.88;;;4.60;99.90;;;;;;6097455;23;20009;-85
2022/01/30 06:36:38;;;;;;;12.95;2.38;;;4.60;99.90;;;;;;6070514;23;20182;-86
2022/01/30 06:39:04;;;;;;;20.08;2.72;;;4.60;99.90;;;;;;6085534;23;20455;-86
2022/01/30 06:41:29;;;;;;;31.60;4.35;;;4.50;99.90;;;;;;6070636;23;20092;-86
2022/01/30 06:43:55;;;;;;;24.52;3.92;;;4.50;99.90;;;;;;6095431;23;20141;-87
2022/01/30 06:46:20;;;;;;;19.33;2.60;;;4.40;99.90;;;;;;6095668;23;20080;-87
2022/01/30 06:48:46;;;;;;;25.70;3.67;;;4.40;99.90;;;;;;6061653;23;20029;-87
2022/01/30 06:51:11;;;;;;;21.38;3.65;;;4.40;99.90;;;;;;6067841;23;20012;-87
2022/01/30 06:53:37;;;;;;;29.05;4.82;;;4.40;99.90;;;;;;6097080;23;20010;-86
2022/01/30 06:56:03;;;;;;;21.67;3.78;;;4.30;99.90;;;;;;6096031;23;20057;-86
2022/01/30 06:58:30;;;;;;;22.77;3.33;;;4.10;99.90;;;;;;6096779;23;20023;-87
2022/01/30 07:00:56;;;;;;;21.33;3.35;;;4.20;99.90;;;;;;6095218;23;20040;-87
2022/01/30 07:03:22;;;;;;;31.63;3.58;;;4.20;99.90;;;;;;6096635;23;20347;-87
2022/01/30 07:05:47;;;;;;;25.65;3.67;;;4.20;99.90;;;;;;6097586;23;20403;-87
2022/01/30 07:08:13;;;;;;;28.05;4.43;;;4.20;99.90;;;;;;6096899;23;20014;-87
2022/01/30 07:10:40;;;;;;;18.55;3.05;;;4.30;99.90;;;;;;6095031;23;20366;-87
2022/01/30 07:13:07;;;;;;;21.48;2.70;;;4.20;99.90;;;;;;6121995;23;20005;-86
2022/01/30 07:15:33;;;;;;;27.50;3.42;;;4.20;99.90;;;;;;6098487;23;20001;-87
2022/01/30 07:17:58;;;;;;;27.00;2.63;;;4.20;99.90;;;;;;6097495;23;20010;-87
2022/01/30 07:20:24;;;;;;;22.80;4.25;;;4.00;99.90;;;;;;6092931;23;20021;-87
2022/01/30 07:22:49;;;;;;;28.90;4.30;;;4.00;99.90;;;;;;6097516;23;20016;-87
2022/01/30 07:25:15;;;;;;;25.08;2.83;;;4.00;99.90;;;;;;6097606;23;20006;-86
2022/01/30 07:27:42;;;;;;;16.15;2.95;;;3.90;99.90;;;;;;6094407;23;20024;-86
2022/01/30 07:30:08;;;;;;;17.48;2.40;;;3.90;99.90;;;;;;6096572;23;20016;-85
2022/01/30 07:32:33;;;;;;;18.40;2.92;;;4.00;99.90;;;;;;6096785;23;20490;-86
2022/01/30 07:34:59;;;;;;;21.98;3.00;;;4.10;99.90;;;;;;6096055;23;20013;-86
2022/01/30 07:37:25;;;;;;;17.20;3.10;;;4.20;99.90;;;;;;6060764;23;20007;-87
2022/01/30 07:39:51;;;;;;;24.58;3.63;;;4.10;99.90;;;;;;6067993;23;20009;-86
2022/01/30 07:42:16;;;;;;;15.05;2.70;;;4.10;99.90;;;;;;6095645;23;20026;-86
2022/01/30 07:44:42;;;;;;;21.00;2.92;;;4.10;99.90;;;;;;6094366;23;20363;-87
2022/01/30 07:47:08;;;;;;;23.95;3.28;;;4.00;99.90;;;;;;6096366;23;20442;-86
2022/01/30 07:49:34;;;;;;;20.10;2.80;;;4.00;99.90;;;;;;6096605;23;20009;-87
2022/01/30 07:52:00;;;;;;;18.48;2.13;;;3.90;99.90;;;;;;6095895;23;20041;-87
2022/01/30 07:54:28;;;;;;;35.38;3.33;;;4.00;99.90;;;;;;6093376;23;20088;-87
2022/01/30 07:56:54;;;;;;;16.77;2.47;;;3.90;99.90;;;;;;6070181;23;20354;-87
2022/01/30 07:59:20;;;;;;;19.77;2.25;;;3.90;99.90;;;;;;6058484;23;20010;-86
2022/01/30 08:01:46;;;;;;;19.75;3.25;;;3.90;99.90;;;;;;6040337;23;20021;-87
2022/01/30 08:04:12;;;;;;;25.42;3.33;;;3.80;99.90;;;;;;6095648;23;20370;-87
2022/01/30 08:06:38;;;;;;;18.30;3.35;;;3.90;99.90;;;;;;6096921;23;20071;-86
2022/01/30 08:09:03;;;;;;;20.88;3.60;;;4.00;99.90;;;;;;6097884;23;20012;-86
2022/01/30 08:11:31;;;;;;;12.38;1.50;;;4.00;99.90;;;;;;6093880;23;20339;-86
2022/01/30 08:13:56;;;;;;;17.98;2.92;;;4.10;99.90;;;;;;6096766;23;20014;-87
2022/01/30 08:16:24;;;;;;;28.08;3.15;;;4.10;99.90;;;;;;6095932;23;20343;-86
2022/01/30 08:18:49;;;;;;;22.88;3.33;;;4.10;99.90;;;;;;6094814;23;20013;-86
2022/01/30 08:21:15;;;;;;;19.25;2.75;;;4.20;99.90;;;;;;6095296;23;20089;-86
2022/01/30 08:23:41;;;;;;;24.58;4.32;;;4.20;99.90;;;;;;6096640;23;20029;-86
2022/01/30 08:26:06;;;;;;;13.98;3.28;;;4.20;99.90;;;;;;6092248;23;20010;-86
2022/01/30 08:28:32;;;;;;;14.35;2.78;;;4.30;99.90;;;;;;6084163;23;20106;-86
2022/01/30 08:30:57;;;;;;;20.58;3.15;;;4.30;99.90;;;;;;6095503;23;20097;-86
2022/01/30 08:33:23;;;;;;;15.60;2.55;;;4.40;99.90;;;;;;6119420;23;20019;-86
2022/01/30 08:35:52;;;;;;;16.50;2.42;;;4.40;99.90;;;;;;6094689;23;20412;-86
2022/01/30 08:38:18;;;;;;;26.70;4.30;;;4.40;99.90;;;;;;6122317;23;20021;-86
2022/01/30 08:40:50;;;;;;;18.52;2.72;;;4.60;99.90;;;;;;6087941;23;20021;-86
2022/01/30 08:43:17;;;;;;;22.15;3.42;;;4.70;99.90;;;;;;6072493;23;20016;-86
2022/01/30 08:45:42;;;;;;;22.63;3.20;;;4.80;99.90;;;;;;6097647;23;20112;-86
2022/01/30 08:48:08;;;;;;;29.98;4.10;;;4.90;99.90;;;;;;6119254;23;20613;-87
2022/01/30 08:50:34;;;;;;;32.78;6.05;;;4.80;99.90;;;;;;6095406;23;20379;-86
2022/01/30 08:53:05;;;;;;;26.92;5.65;;;4.90;99.90;;;;;;6096950;23;20018;-89
2022/01/30 08:55:33;;;;;;;29.02;4.40;;;5.00;99.90;;;;;;6093477;23;20006;-88
2022/01/30 08:58:08;;;;;;;19.25;4.00;;;5.00;99.90;;;;;;6083732;23;20069;-90
2022/01/30 09:00:52;;;;;;;24.43;4.73;;;5.10;99.90;;;;;;6074801;23;20675;-90
2022/01/30 09:03:18;;;;;;;15.55;3.30;;;5.20;99.90;;;;;;6092708;23;20439;-89
2022/01/30 09:05:46;;;;;;;18.25;4.32;;;5.20;99.90;;;;;;6045662;23;20005;-89
2022/01/30 09:08:13;;;;;;;22.23;4.35;;;5.30;99.90;;;;;;6095819;23;20002;-91
2022/01/30 09:10:39;;;;;;;21.27;3.72;;;5.40;99.90;;;;;;6090028;23;20348;-91
2022/01/30 09:13:10;;;;;;;26.30;3.80;;;5.40;99.90;;;;;;6096782;23;20040;-91
2022/01/30 09:15:40;;;;;;;17.23;2.67;;;5.50;99.90;;;;;;6073302;23;20394;-91
2022/01/30 09:18:08;;;;;;;29.48;3.97;;;5.50;99.90;;;;;;6091054;23;20077;-89
2022/01/30 09:20:35;;;;;;;26.58;4.05;;;5.50;99.90;;;;;;6096203;23;20027;-89
2022/01/30 09:23:01;;;;;;;28.30;4.53;;;5.60;99.90;;;;;;6082112;23;20005;-91
2022/01/30 09:25:27;;;;;;;27.67;3.75;;;5.70;99.90;;;;;;6097303;23;20098;-91
2022/01/30 09:27:53;;;;;;;25.50;3.50;;;5.70;99.90;;;;;;6065210;23;20071;-92
2022/01/30 09:30:19;;;;;;;22.85;2.70;;;5.80;99.90;;;;;;6068280;23;20474;-90
2022/01/30 09:32:47;;;;;;;23.17;3.63;;;5.80;99.90;;;;;;6098877;23;20447;-91
2022/01/30 09:35:13;;;;;;;31.85;4.88;;;5.80;99.90;;;;;;6097769;23;20080;-90
2022/01/30 09:37:38;;;;;;;14.82;1.75;;;5.90;99.90;;;;;;6075697;23;20089;-90
2022/01/30 09:40:05;;;;;;;23.85;5.22;;;5.90;99.90;;;;;;6083848;23;20422;-90
2022/01/30 09:42:30;;;;;;;25.08;3.50;;;5.80;99.90;;;;;;6097423;23;20017;-90
2022/01/30 09:45:00;;;;;;;19.98;3.03;;;5.80;99.90;;;;;;6099060;23;20040;-88
2022/01/30 09:47:26;;;;;;;35.45;5.28;;;5.80;99.90;;;;;;6095725;23;20018;-88
2022/01/30 09:49:52;;;;;;;24.98;3.30;;;5.80;99.90;;;;;;6096654;23;20010;-87
2022/01/30 09:52:18;;;;;;;25.90;3.30;;;5.80;99.90;;;;;;6096654;23;20025;-87
2022/01/30 09:54:44;;;;;;;29.00;5.20;;;5.80;99.90;;;;;;6096451;23;20037;-87
2022/01/30 09:57:10;;;;;;;20.38;3.72;;;5.90;99.90;;;;;;6095117;23;20442;-87
2022/01/30 09:59:35;;;;;;;17.40;3.22;;;6.00;99.90;;;;;;6096382;23;20021;-87
2022/01/30 10:02:05;;;;;;;21.02;3.17;;;6.00;99.90;;;;;;6095036;23;20098;-87
2022/01/30 10:04:30;;;;;;;20.95;3.67;;;6.00;99.90;;;;;;6095162;23;20443;-87
2022/01/30 10:07:04;;;;;;;19.35;2.78;;;6.00;99.90;;;;;;6096292;23;20020;-86
2022/01/30 10:09:34;;;;;;;28.38;4.32;;;6.00;99.90;;;;;;6092266;23;20014;-87
2022/01/30 10:12:15;;;;;;;32.47;4.50;;;6.00;99.90;;;;;;6097419;23;20014;-87
2022/01/30 10:14:53;;;;;;;26.50;4.07;;;5.90;99.90;;;;;;6096533;23;20224;-87
2022/01/30 10:17:48;;;;;;;38.42;5.88;;;6.00;99.90;;;;;;6097752;23;20343;-87
2022/01/30 10:20:19;;;;;;;29.45;3.17;;;6.00;99.90;;;;;;6098741;23;20017;-87
2022/01/30 10:22:50;;;;;;;22.98;3.17;;;6.10;99.90;;;;;;6123123;23;20018;-87
2022/01/30 10:25:25;;;;;;;26.48;5.03;;;6.10;99.90;;;;;;6095715;23;20084;-87
2022/01/30 10:28:10;;;;;;;31.42;4.70;;;6.10;99.90;;;;;;6073965;23;20005;-87
2022/01/30 10:30:42;;;;;;;17.65;3.35;;;6.20;99.90;;;;;;6098312;23;20061;-87
2022/01/30 10:33:12;;;;;;;27.55;3.83;;;6.20;99.90;;;;;;6095374;23;20028;-87
2022/01/30 10:35:53;;;;;;;21.20;4.18;;;6.10;99.90;;;;;;6097649;23;20017;-88
2022/01/30 10:38:23;;;;;;;22.42;4.82;;;6.30;99.90;;;;;;6123342;23;20083;-90
2022/01/30 10:41:23;;;;;;;23.15;3.83;;;6.10;99.90;;;;;;6122847;23;20021;-90
2022/01/30 10:44:05;;;;;;;23.42;3.28;;;6.20;99.90;;;;;;6097922;23;20024;-89
2022/01/30 10:47:09;;;;;;;30.65;5.63;;;6.10;99.90;;;;;;6039315;23;20072;-90
2022/01/30 10:49:44;;;;;;;29.60;4.63;;;6.30;99.90;;;;;;6032630;23;20025;-88
2022/01/30 10:52:13;;;;;;;38.25;4.45;;;6.40;99.90;;;;;;6083453;23;20040;-86
2022/01/30 10:54:39;;;;;;;43.25;5.53;;;6.40;99.90;;;;;;6119909;23;20017;-88
2022/01/30 10:57:06;;;;;;;34.42;4.05;;;6.50;99.90;;;;;;6096861;23;20032;-89
2022/01/30 10:59:31;;;;;;;30.88;5.20;;;6.40;99.90;;;;;;6094739;23;20016;-86
2022/01/30 11:02:19;;;;;;;23.50;3.85;;;6.70;99.90;;;;;;6094623;23;20390;-89
2022/01/30 11:04:47;;;;;;;23.08;3.80;;;6.80;99.90;;;;;;6096505;23;20068;-88
2022/01/30 11:07:22;;;;;;;25.75;3.95;;;7.10;99.90;;;;;;6125351;23;20017;-89
2022/01/30 11:10:09;;;;;;;23.83;4.05;;;6.90;99.90;;;;;;6064741;23;20085;-84
2022/01/30 11:12:41;;;;;;;28.88;3.72;;;6.90;99.90;;;;;;6098153;23;20034;-85
2022/01/30 11:17:46;;;;;;;16.45;2.90;;;7.00;99.90;;;;;;6122803;23;20017;-86
2022/01/30 11:20:15;;;;;;;24.50;4.88;;;7.10;99.90;;;;;;6096324;23;20024;-84
2022/01/30 11:22:45;;;;;;;24.67;3.88;;;6.80;99.90;;;;;;6093317;23;20013;-85
2022/01/30 11:25:12;;;;;;;24.35;4.25;;;6.90;99.90;;;;;;6120615;23;20419;-85
2022/01/30 11:27:39;;;;;;;31.23;4.40;;;6.80;99.90;;;;;;6095148;23;20021;-85
2022/01/30 11:30:06;;;;;;;19.90;3.38;;;7.10;99.90;;;;;;6119392;23;20033;-85
2022/01/30 11:32:31;;;;;;;28.35;5.97;;;6.80;99.90;;;;;;6093570;23;20028;-84
2022/01/30 11:34:57;;;;;;;25.25;3.95;;;6.90;99.90;;;;;;6108338;23;20017;-85
2022/01/30 11:37:24;;;;;;;38.80;5.13;;;7.00;99.90;;;;;;6120242;23;20396;-85
2022/01/30 11:39:52;;;;;;;37.13;8.02;;;7.20;99.90;;;;;;6096534;23;20036;-85
2022/01/30 11:42:23;;;;;;;31.95;4.70;;;7.30;99.90;;;;;;6120171;23;20374;-85
2022/01/30 11:45:06;;;;;;;30.42;3.75;;;7.20;99.90;;;;;;6093692;23;20014;-85
2022/01/30 11:47:52;;;;;;;35.33;4.85;;;7.40;99.90;;;;;;6097727;23;20471;-85
2022/01/30 11:50:19;;;;;;;32.58;3.90;;;7.30;99.90;;;;;;6082946;23;20037;-84
2022/01/30 11:52:53;;;;;;;39.78;6.53;;;7.40;99.90;;;;;;6096058;23;20018;-85
2022/01/30 11:55:42;;;;;;;39.10;5.50;;;7.50;99.90;;;;;;6120039;23;20016;-85
2022/01/30 11:58:31;;;;;;;35.65;5.53;;;7.40;99.90;;;;;;6092020;23;20044;-84
2022/01/30 12:01:11;;;;;;;28.67;3.63;;;7.50;99.90;;;;;;6118716;23;20021;-85
2022/01/30 12:03:36;;;;;;;28.92;4.05;;;7.60;99.90;;;;;;6119062;23;20009;-84
2022/01/30 12:06:22;;;;;;;36.40;5.30;;;7.60;99.90;;;;;;6093160;23;20457;-85
2022/01/30 12:08:49;;;;;;;34.17;4.80;;;7.80;99.90;;;;;;6145910;23;20028;-86
2022/01/30 12:11:47;;;;;;;20.77;3.95;;;7.70;99.90;;;;;;6094700;23;20351;-85
2022/01/30 12:14:22;;;;;;;24.33;5.03;;;7.90;99.90;;;;;;6116561;23;20386;-84
2022/01/30 12:17:00;;;;;;;37.35;7.68;;;7.90;99.90;;;;;;6114481;23;20450;-84
2022/01/30 12:19:41;;;;;;;37.38;5.97;;;7.80;99.90;;;;;;6092423;23;20456;-84
2022/01/30 12:22:16;;;;;;;40.55;5.95;;;7.70;99.90;;;;;;6113589;23;20020;-84
2022/01/30 12:24:45;;;;;;;20.13;3.75;;;7.60;99.90;;;;;;6113197;23;20408;-85
2022/01/30 12:27:11;;;;;;;34.08;6.03;;;7.80;99.90;;;;;;6114836;23;20039;-85
2022/01/30 12:29:38;;;;;;;33.40;6.25;;;7.90;99.90;;;;;;6089927;23;20017;-85
2022/01/30 12:32:24;;;;;;;29.13;5.15;;;8.00;99.90;;;;;;6114819;23;20032;-85
2022/01/30 12:34:56;;;;;;;;;;;8.10;99.90;;;;;;6117191;23;20009;-85
2022/01/30 12:37:29;;;;;;;32.42;4.40;;;8.10;99.90;;;;;;6139794;23;19987;-85
2022/01/30 12:39:55;;;;;;;22.77;3.92;;;8.10;99.90;;;;;;6068421;23;20009;-84
2022/01/30 12:42:22;;;;;;;25.95;4.00;;;8.30;99.90;;;;;;6092968;23;20013;-85
2022/01/30 12:44:48;;;;;;;30.80;4.47;;;8.20;99.90;;;;;;6117371;23;20029;-85
2022/01/30 12:47:14;;;;;;;31.20;4.53;;;8.20;99.90;;;;;;6092772;23;20040;-85
2022/01/30 12:49:43;;;;;;;30.02;5.43;;;8.20;99.90;;;;;;6090193;23;20049;-85
2022/01/30 12:52:20;;;;;;;33.03;5.70;;;8.30;99.90;;;;;;6116556;23;20052;-85
2022/01/30 12:54:47;;;;;;;24.92;6.40;;;8.20;99.90;;;;;;6094709;23;20009;-85
2022/01/30 12:57:14;;;;;;;29.67;4.95;;;8.20;99.90;;;;;;6090225;23;20013;-84
2022/01/30 12:59:41;;;;;;;34.17;5.07;;;8.20;99.90;;;;;;6091314;23;20018;-85
2022/01/30 13:02:07;;;;;;;27.73;5.13;;;8.20;99.90;;;;;;6089135;23;20531;-84
2022/01/30 13:04:33;;;;;;;39.08;5.18;;;8.20;99.90;;;;;;6091003;23;20018;-85
2022/01/30 13:06:58;;;;;;;36.90;5.65;;;8.10;99.90;;;;;;6094169;23;20048;-85
2022/01/30 13:09:26;;;;;;;21.83;4.80;;;8.10;99.90;;;;;;6096342;23;20014;-84
2022/01/30 13:11:52;;;;;;;37.75;6.05;;;8.00;99.90;;;;;;6073238;23;20444;-84
2022/01/30 13:14:17;;;;;;;27.10;5.30;;;8.10;99.90;;;;;;6096608;23;20347;-84
2022/01/30 13:16:47;;;;;;;22.73;4.85;;;8.10;99.90;;;;;;6095820;23;20014;-84
2022/01/30 13:19:28;;;;;;;27.77;6.25;;;8.10;99.90;;;;;;6119854;23;20014;-86
2022/01/30 13:21:54;;;;;;;24.85;5.50;;;8.10;99.90;;;;;;6096286;23;20453;-85
2022/01/30 13:24:20;;;;;;;32.55;6.03;;;8.20;99.90;;;;;;6076813;23;20018;-86
2022/01/30 13:26:45;;;;;;;35.38;5.18;;;8.30;99.90;;;;;;6077974;23;20018;-86
2022/01/30 13:29:19;;;;;;;37.58;6.03;;;8.20;99.90;;;;;;6120714;23;20013;-87
2022/01/30 13:31:45;;;;;;;31.27;4.78;;;8.30;99.90;;;;;;6119831;23;20036;-87
2022/01/30 13:34:21;;;;;;;23.85;4.00;;;8.20;99.90;;;;;;6012265;23;20021;-87
2022/01/30 13:36:54;;;;;;;40.72;8.23;;;8.30;99.90;;;;;;6089333;23;20029;-87
2022/01/30 13:39:29;;;;;;;34.35;3.72;;;8.30;99.90;;;;;;6123056;23;20021;-87
2022/01/30 13:42:13;;;;;;;39.08;5.07;;;8.30;99.90;;;;;;6096828;23;20013;-87
2022/01/30 13:44:49;;;;;;;27.92;4.90;;;8.20;99.90;;;;;;6101162;23;20045;-88
2022/01/30 13:47:18;;;;;;;26.05;4.63;;;8.20;99.90;;;;;;6099757;23;20115;-87